Duncan, Iowa
Current Conditions -  °F | °C
As of 4:15 AM on Saturday 20 Dec 2014 (Local Time) from KFXY Reporting Station
Haze Haze  
Wind Chill: 23°   Ceiling: 200
Heat Index: 30°   Visibility: 1.2mi
Dew Point: 30°   Wind: 7mph
Humidity: 100%   Direction: 160°SSE
Pressure: 30.15"   Gusts: NA
Location:  43.1015°N, 93.7581°W
Report Text: KFXY 201015Z AUTO 16006KT 1 1/4SM BR OVC002 M01/M01 A3015 RMK AO2
Loading
Personal Weather Stations






























Interactive Weather Map New forecast layout! Learn more

10-Day Weather Forecast

Advertisements
Track Severe Weather on mobile